sensor_id;sensor_type;location;lat;lon;timestamp;temperature;humidity
19868;DHT22;10096;51.112;6.776;2022-09-13T00:02:15;17.90;92.10
19868;DHT22;10096;51.112;6.776;2022-09-13T00:04:44;17.90;95.40
19868;DHT22;10096;51.112;6.776;2022-09-13T00:07:11;18.00;94.10
19868;DHT22;10096;51.112;6.776;2022-09-13T00:09:38;17.70;92.40
19868;DHT22;10096;51.112;6.776;2022-09-13T00:12:05;17.90;69.30
19868;DHT22;10096;51.112;6.776;2022-09-13T00:14:33;17.80;99.90
19868;DHT22;10096;51.112;6.776;2022-09-13T00:17:07;17.90;97.50
19868;DHT22;10096;51.112;6.776;2022-09-13T00:19:38;17.90;96.10
19868;DHT22;10096;51.112;6.776;2022-09-13T00:22:09;17.70;99.90
19868;DHT22;10096;51.112;6.776;2022-09-13T00:24:36;17.90;99.90
19868;DHT22;10096;51.112;6.776;2022-09-13T00:27:04;17.70;99.90
19868;DHT22;10096;51.112;6.776;2022-09-13T00:29:31;17.70;99.90
19868;DHT22;10096;51.112;6.776;2022-09-13T00:31:58;17.70;99.90
19868;DHT22;10096;51.112;6.776;2022-09-13T00:34:25;17.70;99.90
19868;DHT22;10096;51.112;6.776;2022-09-13T00:36:53;17.90;99.90
19868;DHT22;10096;51.112;6.776;2022-09-13T00:39:22;18.00;99.90
19868;DHT22;10096;51.112;6.776;2022-09-13T00:41:49;18.10;99.60
19868;DHT22;10096;51.112;6.776;2022-09-13T00:44:46;18.10;99.90
19868;DHT22;10096;51.112;6.776;2022-09-13T00:47:18;18.10;99.90
19868;DHT22;10096;51.112;6.776;2022-09-13T00:49:47;18.10;99.90
19868;DHT22;10096;51.112;6.776;2022-09-13T00:52:19;18.20;96.60
19868;DHT22;10096;51.112;6.776;2022-09-13T00:54:55;18.20;73.10
19868;DHT22;10096;51.112;6.776;2022-09-13T00:57:25;18.20;10.90
19868;DHT22;10096;51.112;6.776;2022-09-13T00:59:58;18.30;1.00
19868;DHT22;10096;51.112;6.776;2022-09-13T01:02:26;18.40;1.00
19868;DHT22;10096;51.112;6.776;2022-09-13T01:04:53;18.30;1.00
19868;DHT22;10096;51.112;6.776;2022-09-13T01:07:21;18.30;1.00
19868;DHT22;10096;51.112;6.776;2022-09-13T01:09:52;18.20;1.00
19868;DHT22;10096;51.112;6.776;2022-09-13T01:12:28;18.40;1.00
19868;DHT22;10096;51.112;6.776;2022-09-13T01:14:58;18.40;1.90
19868;DHT22;10096;51.112;6.776;2022-09-13T01:17:27;18.20;18.30
19868;DHT22;10096;51.112;6.776;2022-09-13T01:19:57;18.30;40.10
19868;DHT22;10096;51.112;6.776;2022-09-13T01:25:52;18.10;53.80
19868;DHT22;10096;51.112;6.776;2022-09-13T01:31:23;18.10;82.10
19868;DHT22;10096;51.112;6.776;2022-09-13T01:34:05;18.10;99.90
19868;DHT22;10096;51.112;6.776;2022-09-13T01:36:56;18.00;99.90
19868;DHT22;10096;51.112;6.776;2022-09-13T01:39:45;18.00;99.90
19868;DHT22;10096;51.112;6.776;2022-09-13T01:42:20;18.00;99.90
19868;DHT22;10096;51.112;6.776;2022-09-13T01:45:02;18.00;99.90
19868;DHT22;10096;51.112;6.776;2022-09-13T01:47:41;18.10;99.90
19868;DHT22;10096;51.112;6.776;2022-09-13T01:50:15;17.90;98.60
19868;DHT22;10096;51.112;6.776;2022-09-13T01:52:51;17.90;99.60
19868;DHT22;10096;51.112;6.776;2022-09-13T01:55:27;17.90;99.90
19868;DHT22;10096;51.112;6.776;2022-09-13T01:58:06;17.90;99.90
19868;DHT22;10096;51.112;6.776;2022-09-13T02:00:37;18.00;99.90
19868;DHT22;10096;51.112;6.776;2022-09-13T02:03:12;18.00;99.90
19868;DHT22;10096;51.112;6.776;2022-09-13T02:05:46;18.10;99.90
19868;DHT22;10096;51.112;6.776;2022-09-13T02:08:17;17.60;99.90
19868;DHT22;10096;51.112;6.776;2022-09-13T02:10:47;18.00;99.90
19868;DHT22;10096;51.112;6.776;2022-09-13T02:13:20;17.70;99.90
19868;DHT22;10096;51.112;6.776;2022-09-13T02:15:51;17.70;99.90
19868;DHT22;10096;51.112;6.776;2022-09-13T02:18:24;18.00;99.90
19868;DHT22;10096;51.112;6.776;2022-09-13T02:20:54;18.00;99.90
19868;DHT22;10096;51.112;6.776;2022-09-13T02:23:28;17.90;99.90
19868;DHT22;10096;51.112;6.776;2022-09-13T02:25:59;17.90;99.90
19868;DHT22;10096;51.112;6.776;2022-09-13T02:28:30;18.00;99.90
19868;DHT22;10096;51.112;6.776;2022-09-13T02:30:58;18.10;99.90
19868;DHT22;10096;51.112;6.776;2022-09-13T02:33:32;18.10;99.90
19868;DHT22;10096;51.112;6.776;2022-09-13T02:36:05;18.10;99.90
19868;DHT22;10096;51.112;6.776;2022-09-13T02:38:37;18.10;99.90
19868;DHT22;10096;51.112;6.776;2022-09-13T02:41:14;18.20;99.90
19868;DHT22;10096;51.112;6.776;2022-09-13T02:43:47;18.20;99.90
19868;DHT22;10096;51.112;6.776;2022-09-13T02:46:23;18.00;99.90
19868;DHT22;10096;51.112;6.776;2022-09-13T02:48:58;17.90;99.90
19868;DHT22;10096;51.112;6.776;2022-09-13T02:51:32;18.10;99.90
19868;DHT22;10096;51.112;6.776;2022-09-13T02:54:09;17.90;99.90
19868;DHT22;10096;51.112;6.776;2022-09-13T02:56:47;17.90;99.90
19868;DHT22;10096;51.112;6.776;2022-09-13T02:59:17;17.90;99.90
19868;DHT22;10096;51.112;6.776;2022-09-13T03:01:48;17.90;99.90
19868;DHT22;10096;51.112;6.776;2022-09-13T03:04:17;18.10;99.90
19868;DHT22;10096;51.112;6.776;2022-09-13T03:06:44;18.10;99.90
19868;DHT22;10096;51.112;6.776;2022-09-13T03:09:11;18.10;99.90
19868;DHT22;10096;51.112;6.776;2022-09-13T03:14:38;18.10;99.90
19868;DHT22;10096;51.112;6.776;2022-09-13T03:17:29;18.40;99.90
19868;DHT22;10096;51.112;6.776;2022-09-13T03:20:13;18.20;99.90
19868;DHT22;10096;51.112;6.776;2022-09-13T03:23:02;18.20;99.90
19868;DHT22;10096;51.112;6.776;2022-09-13T03:28:25;18.20;99.90
19868;DHT22;10096;51.112;6.776;2022-09-13T03:30:59;18.20;99.90
19868;DHT22;10096;51.112;6.776;2022-09-13T03:33:33;18.10;1.00
19868;DHT22;10096;51.112;6.776;2022-09-13T03:36:08;18.00;1.00
19868;DHT22;10096;51.112;6.776;2022-09-13T03:38:43;17.90;1.00
19868;DHT22;10096;51.112;6.776;2022-09-13T03:41:14;17.80;1.00
19868;DHT22;10096;51.112;6.776;2022-09-13T03:43:45;17.70;1.00
19868;DHT22;10096;51.112;6.776;2022-09-13T03:46:18;17.70;99.90
19868;DHT22;10096;51.112;6.776;2022-09-13T03:48:48;17.70;99.90
19868;DHT22;10096;51.112;6.776;2022-09-13T03:51:17;17.70;99.90
19868;DHT22;10096;51.112;6.776;2022-09-13T03:53:47;17.80;99.90
19868;DHT22;10096;51.112;6.776;2022-09-13T03:56:17;17.70;99.90
19868;DHT22;10096;51.112;6.776;2022-09-13T03:58:44;17.80;99.90
19868;DHT22;10096;51.112;6.776;2022-09-13T04:01:12;17.80;99.90
19868;DHT22;10096;51.112;6.776;2022-09-13T04:03:39;18.10;1.00
19868;DHT22;10096;51.112;6.776;2022-09-13T04:06:07;17.90;1.00
19868;DHT22;10096;51.112;6.776;2022-09-13T04:08:35;17.90;1.00
19868;DHT22;10096;51.112;6.776;2022-09-13T04:11:02;17.90;1.00
19868;DHT22;10096;51.112;6.776;2022-09-13T04:13:33;18.00;1.00
19868;DHT22;10096;51.112;6.776;2022-09-13T04:16:01;18.10;1.00
19868;DHT22;10096;51.112;6.776;2022-09-13T04:18:28;18.00;1.00
19868;DHT22;10096;51.112;6.776;2022-09-13T04:20:58;18.00;1.00
19868;DHT22;10096;51.112;6.776;2022-09-13T04:23:27;18.10;99.90
19868;DHT22;10096;51.112;6.776;2022-09-13T04:26:01;18.00;99.90
19868;DHT22;10096;51.112;6.776;2022-09-13T04:28:28;18.00;99.90
19868;DHT22;10096;51.112;6.776;2022-09-13T04:30:57;18.00;1.00
19868;DHT22;10096;51.112;6.776;2022-09-13T04:33:24;18.00;1.00
19868;DHT22;10096;51.112;6.776;2022-09-13T04:35:57;18.10;1.00
19868;DHT22;10096;51.112;6.776;2022-09-13T04:38:24;18.10;1.00
19868;DHT22;10096;51.112;6.776;2022-09-13T04:40:52;18.20;1.00
19868;DHT22;10096;51.112;6.776;2022-09-13T04:43:21;18.00;99.90
19868;DHT22;10096;51.112;6.776;2022-09-13T04:45:50;17.80;99.90
19868;DHT22;10096;51.112;6.776;2022-09-13T04:48:17;18.20;1.00
19868;DHT22;10096;51.112;6.776;2022-09-13T04:50:44;18.10;1.00
19868;DHT22;10096;51.112;6.776;2022-09-13T04:53:12;18.10;1.00
19868;DHT22;10096;51.112;6.776;2022-09-13T04:55:39;18.10;1.00
19868;DHT22;10096;51.112;6.776;2022-09-13T04:58:06;18.30;1.00
19868;DHT22;10096;51.112;6.776;2022-09-13T05:00:36;18.30;1.00
19868;DHT22;10096;51.112;6.776;2022-09-13T05:03:03;18.10;1.00
19868;DHT22;10096;51.112;6.776;2022-09-13T05:05:34;18.00;1.00
19868;DHT22;10096;51.112;6.776;2022-09-13T05:08:01;18.30;1.00
19868;DHT22;10096;51.112;6.776;2022-09-13T05:10:31;18.10;1.00
19868;DHT22;10096;51.112;6.776;2022-09-13T05:13:00;18.20;1.00
19868;DHT22;10096;51.112;6.776;2022-09-13T05:15:26;18.00;1.00
19868;DHT22;10096;51.112;6.776;2022-09-13T05:17:56;17.80;1.00
19868;DHT22;10096;51.112;6.776;2022-09-13T05:20:24;17.70;1.00
19868;DHT22;10096;51.112;6.776;2022-09-13T05:22:51;17.80;1.00
19868;DHT22;10096;51.112;6.776;2022-09-13T05:25:18;17.80;1.00
19868;DHT22;10096;51.112;6.776;2022-09-13T05:27:45;17.80;1.00
19868;DHT22;10096;51.112;6.776;2022-09-13T05:30:12;17.80;1.00
19868;DHT22;10096;51.112;6.776;2022-09-13T05:32:39;17.90;1.00
19868;DHT22;10096;51.112;6.776;2022-09-13T05:35:08;17.90;1.00
19868;DHT22;10096;51.112;6.776;2022-09-13T05:37:35;18.00;1.00
19868;DHT22;10096;51.112;6.776;2022-09-13T05:40:03;18.00;1.00
19868;DHT22;10096;51.112;6.776;2022-09-13T05:42:30;18.00;1.00
19868;DHT22;10096;51.112;6.776;2022-09-13T05:44:57;18.00;1.00
19868;DHT22;10096;51.112;6.776;2022-09-13T05:47:25;17.90;1.00
19868;DHT22;10096;51.112;6.776;2022-09-13T05:49:52;17.90;1.00
19868;DHT22;10096;51.112;6.776;2022-09-13T05:52:22;18.00;1.00
19868;DHT22;10096;51.112;6.776;2022-09-13T05:54:49;18.10;1.00
19868;DHT22;10096;51.112;6.776;2022-09-13T05:57:16;18.20;1.00
19868;DHT22;10096;51.112;6.776;2022-09-13T05:59:43;18.40;1.00
19868;DHT22;10096;51.112;6.776;2022-09-13T06:02:12;18.30;1.00
19868;DHT22;10096;51.112;6.776;2022-09-13T06:04:39;18.20;1.00
19868;DHT22;10096;51.112;6.776;2022-09-13T06:07:10;18.30;1.00
19868;DHT22;10096;51.112;6.776;2022-09-13T06:09:39;18.40;1.00
19868;DHT22;10096;51.112;6.776;2022-09-13T06:12:06;18.40;1.00
19868;DHT22;10096;51.112;6.776;2022-09-13T06:14:33;18.40;1.00
19868;DHT22;10096;51.112;6.776;2022-09-13T06:17:00;18.60;1.00
19868;DHT22;10096;51.112;6.776;2022-09-13T06:19:28;18.60;1.00
19868;DHT22;10096;51.112;6.776;2022-09-13T06:21:55;18.70;1.00
19868;DHT22;10096;51.112;6.776;2022-09-13T06:24:22;18.90;1.00
19868;DHT22;10096;51.112;6.776;2022-09-13T06:26:50;18.80;1.00
19868;DHT22;10096;51.112;6.776;2022-09-13T06:29:22;18.80;1.00
19868;DHT22;10096;51.112;6.776;2022-09-13T06:31:49;18.90;99.90
19868;DHT22;10096;51.112;6.776;2022-09-13T06:34:16;19.20;99.90
19868;DHT22;10096;51.112;6.776;2022-09-13T06:36:43;19.00;99.90
19868;DHT22;10096;51.112;6.776;2022-09-13T06:39:10;19.00;99.90
19868;DHT22;10096;51.112;6.776;2022-09-13T06:41:38;19.00;99.90
19868;DHT22;10096;51.112;6.776;2022-09-13T06:44:08;19.00;99.90
19868;DHT22;10096;51.112;6.776;2022-09-13T06:46:35;19.00;99.90
19868;DHT22;10096;51.112;6.776;2022-09-13T06:49:05;19.20;99.90
19868;DHT22;10096;51.112;6.776;2022-09-13T06:51:33;19.00;99.90
19868;DHT22;10096;51.112;6.776;2022-09-13T06:54:02;19.40;99.90
19868;DHT22;10096;51.112;6.776;2022-09-13T06:56:31;19.20;99.90
19868;DHT22;10096;51.112;6.776;2022-09-13T06:58:59;19.20;99.90
19868;DHT22;10096;51.112;6.776;2022-09-13T07:01:33;19.20;99.90
19868;DHT22;10096;51.112;6.776;2022-09-13T07:04:03;19.20;99.90
19868;DHT22;10096;51.112;6.776;2022-09-13T07:06:31;19.50;99.90
19868;DHT22;10096;51.112;6.776;2022-09-13T07:09:01;19.40;99.90
19868;DHT22;10096;51.112;6.776;2022-09-13T07:11:31;19.60;99.90
19868;DHT22;10096;51.112;6.776;2022-09-13T07:13:58;19.80;99.90
19868;DHT22;10096;51.112;6.776;2022-09-13T07:16:28;19.70;99.90
19868;DHT22;10096;51.112;6.776;2022-09-13T07:18:57;19.70;99.90
19868;DHT22;10096;51.112;6.776;2022-09-13T07:21:24;19.80;93.80
19868;DHT22;10096;51.112;6.776;2022-09-13T07:23:53;19.80;94.60
19868;DHT22;10096;51.112;6.776;2022-09-13T07:26:21;19.80;67.30
19868;DHT22;10096;51.112;6.776;2022-09-13T07:28:51;19.90;37.70
19868;DHT22;10096;51.112;6.776;2022-09-13T07:31:20;20.00;25.20
19868;DHT22;10096;51.112;6.776;2022-09-13T07:33:52;20.00;41.50
19868;DHT22;10096;51.112;6.776;2022-09-13T07:36:21;20.20;27.10
19868;DHT22;10096;51.112;6.776;2022-09-13T07:38:49;20.30;1.00
19868;DHT22;10096;51.112;6.776;2022-09-13T07:41:17;20.40;1.00
19868;DHT22;10096;51.112;6.776;2022-09-13T07:43:45;20.60;1.00
19868;DHT22;10096;51.112;6.776;2022-09-13T07:46:14;20.70;1.00
19868;DHT22;10096;51.112;6.776;2022-09-13T07:48:42;20.70;1.00
19868;DHT22;10096;51.112;6.776;2022-09-13T07:51:12;20.80;1.00
19868;DHT22;10096;51.112;6.776;2022-09-13T07:53:41;20.80;1.00
19868;DHT22;10096;51.112;6.776;2022-09-13T07:56:09;21.00;1.00
19868;DHT22;10096;51.112;6.776;2022-09-13T07:58:38;21.30;1.00
19868;DHT22;10096;51.112;6.776;2022-09-13T08:01:09;21.60;1.00
19868;DHT22;10096;51.112;6.776;2022-09-13T08:03:37;21.70;1.00
19868;DHT22;10096;51.112;6.776;2022-09-13T08:06:05;21.80;1.00
19868;DHT22;10096;51.112;6.776;2022-09-13T08:08:34;21.90;1.00
19868;DHT22;10096;51.112;6.776;2022-09-13T08:11:03;22.00;1.00
19868;DHT22;10096;51.112;6.776;2022-09-13T08:13:30;22.10;1.00
19868;DHT22;10096;51.112;6.776;2022-09-13T08:16:01;22.20;1.00
19868;DHT22;10096;51.112;6.776;2022-09-13T08:18:28;22.50;1.00
19868;DHT22;10096;51.112;6.776;2022-09-13T08:20:55;22.70;1.00
19868;DHT22;10096;51.112;6.776;2022-09-13T08:23:23;23.00;1.00
19868;DHT22;10096;51.112;6.776;2022-09-13T08:25:51;23.20;1.00
19868;DHT22;10096;51.112;6.776;2022-09-13T08:28:20;23.50;1.00
19868;DHT22;10096;51.112;6.776;2022-09-13T08:30:48;23.50;99.90
19868;DHT22;10096;51.112;6.776;2022-09-13T08:33:15;23.40;1.00
19868;DHT22;10096;51.112;6.776;2022-09-13T08:35:49;23.60;99.90
19868;DHT22;10096;51.112;6.776;2022-09-13T08:38:16;23.50;99.90
19868;DHT22;10096;51.112;6.776;2022-09-13T08:40:46;23.70;1.00
19868;DHT22;10096;51.112;6.776;2022-09-13T08:43:23;24.00;99.90
19868;DHT22;10096;51.112;6.776;2022-09-13T08:45:59;24.10;1.00
19868;DHT22;10096;51.112;6.776;2022-09-13T08:48:31;24.30;99.90
19868;DHT22;10096;51.112;6.776;2022-09-13T08:51:03;24.40;99.90
19868;DHT22;10096;51.112;6.776;2022-09-13T08:53:37;24.60;99.90
19868;DHT22;10096;51.112;6.776;2022-09-13T08:56:09;24.80;99.90
19868;DHT22;10096;51.112;6.776;2022-09-13T08:59:05;24.80;99.90
19868;DHT22;10096;51.112;6.776;2022-09-13T09:01:48;24.60;99.90
19868;DHT22;10096;51.112;6.776;2022-09-13T09:04:31;24.90;99.90
19868;DHT22;10096;51.112;6.776;2022-09-13T09:07:04;24.60;99.90
19868;DHT22;10096;51.112;6.776;2022-09-13T09:09:37;24.30;99.90
19868;DHT22;10096;51.112;6.776;2022-09-13T09:12:14;24.30;99.90
19868;DHT22;10096;51.112;6.776;2022-09-13T09:14:50;24.40;99.90
19868;DHT22;10096;51.112;6.776;2022-09-13T09:17:21;24.30;99.90
19868;DHT22;10096;51.112;6.776;2022-09-13T09:19:53;24.30;99.90
19868;DHT22;10096;51.112;6.776;2022-09-13T09:22:33;24.40;99.90
19868;DHT22;10096;51.112;6.776;2022-09-13T09:25:01;24.30;99.90
19868;DHT22;10096;51.112;6.776;2022-09-13T09:27:30;24.60;99.90
19868;DHT22;10096;51.112;6.776;2022-09-13T09:30:00;24.90;99.90
19868;DHT22;10096;51.112;6.776;2022-09-13T09:32:46;25.10;99.90
19868;DHT22;10096;51.112;6.776;2022-09-13T09:35:25;25.20;99.90
19868;DHT22;10096;51.112;6.776;2022-09-13T09:38:06;25.40;99.90
19868;DHT22;10096;51.112;6.776;2022-09-13T09:40:38;25.50;99.90
19868;DHT22;10096;51.112;6.776;2022-09-13T09:43:13;25.30;99.90
19868;DHT22;10096;51.112;6.776;2022-09-13T09:45:42;25.20;99.90
19868;DHT22;10096;51.112;6.776;2022-09-13T09:48:15;25.30;1.00
19868;DHT22;10096;51.112;6.776;2022-09-13T09:50:47;25.40;99.90
19868;DHT22;10096;51.112;6.776;2022-09-13T09:53:18;25.40;99.90
19868;DHT22;10096;51.112;6.776;2022-09-13T09:55:53;25.70;99.90
19868;DHT22;10096;51.112;6.776;2022-09-13T09:58:36;26.00;99.90
19868;DHT22;10096;51.112;6.776;2022-09-13T10:01:15;26.00;99.90
19868;DHT22;10096;51.112;6.776;2022-09-13T10:03:50;26.10;99.90
19868;DHT22;10096;51.112;6.776;2022-09-13T10:06:19;26.20;99.90
19868;DHT22;10096;51.112;6.776;2022-09-13T10:08:54;26.40;99.90
19868;DHT22;10096;51.112;6.776;2022-09-13T10:11:41;26.20;99.90
19868;DHT22;10096;51.112;6.776;2022-09-13T10:14:27;25.90;99.90
19868;DHT22;10096;51.112;6.776;2022-09-13T10:17:05;25.70;1.00
19868;DHT22;10096;51.112;6.776;2022-09-13T10:19:39;25.50;99.90
19868;DHT22;10096;51.112;6.776;2022-09-13T10:22:10;25.60;99.90
19868;DHT22;10096;51.112;6.776;2022-09-13T10:24:39;25.90;99.90
19868;DHT22;10096;51.112;6.776;2022-09-13T10:27:22;26.00;99.90
19868;DHT22;10096;51.112;6.776;2022-09-13T10:29:55;26.30;1.00
19868;DHT22;10096;51.112;6.776;2022-09-13T10:32:26;26.50;1.00
19868;DHT22;10096;51.112;6.776;2022-09-13T10:35:06;26.40;1.00
19868;DHT22;10096;51.112;6.776;2022-09-13T10:37:41;26.40;99.90
19868;DHT22;10096;51.112;6.776;2022-09-13T10:40:16;26.10;99.90
19868;DHT22;10096;51.112;6.776;2022-09-13T10:42:50;26.00;99.90
19868;DHT22;10096;51.112;6.776;2022-09-13T10:45:21;26.30;1.00
19868;DHT22;10096;51.112;6.776;2022-09-13T10:47:52;26.50;99.90
19868;DHT22;10096;51.112;6.776;2022-09-13T10:50:23;26.60;99.90
19868;DHT22;10096;51.112;6.776;2022-09-13T10:52:56;26.50;99.90
19868;DHT22;10096;51.112;6.776;2022-09-13T10:55:35;26.60;99.90
19868;DHT22;10096;51.112;6.776;2022-09-13T10:58:18;26.10;1.00
19868;DHT22;10096;51.112;6.776;2022-09-13T11:01:06;26.20;99.90
19868;DHT22;10096;51.112;6.776;2022-09-13T11:03:57;26.20;1.00
19868;DHT22;10096;51.112;6.776;2022-09-13T11:06:34;26.30;99.90
19868;DHT22;10096;51.112;6.776;2022-09-13T11:09:09;26.30;1.00
19868;DHT22;10096;51.112;6.776;2022-09-13T11:11:41;26.40;1.00
19868;DHT22;10096;51.112;6.776;2022-09-13T11:14:21;26.70;1.00
19868;DHT22;10096;51.112;6.776;2022-09-13T11:16:58;26.50;1.00
19868;DHT22;10096;51.112;6.776;2022-09-13T11:19:54;26.80;1.00
19868;DHT22;10096;51.112;6.776;2022-09-13T11:22:53;26.60;1.00
19868;DHT22;10096;51.112;6.776;2022-09-13T11:25:30;26.60;1.00
19868;DHT22;10096;51.112;6.776;2022-09-13T11:28:03;26.90;1.00
19868;DHT22;10096;51.112;6.776;2022-09-13T11:30:37;27.00;1.00
19868;DHT22;10096;51.112;6.776;2022-09-13T11:33:27;27.20;99.90
19868;DHT22;10096;51.112;6.776;2022-09-13T11:36:25;27.30;1.00
19868;DHT22;10096;51.112;6.776;2022-09-13T11:39:01;27.30;1.00
19868;DHT22;10096;51.112;6.776;2022-09-13T11:41:58;27.30;1.00
19868;DHT22;10096;51.112;6.776;2022-09-13T11:45:23;27.20;1.00
19868;DHT22;10096;51.112;6.776;2022-09-13T11:48:08;27.20;1.00
19868;DHT22;10096;51.112;6.776;2022-09-13T11:50:53;27.20;1.00
19868;DHT22;10096;51.112;6.776;2022-09-13T11:53:41;27.20;1.00
19868;DHT22;10096;51.112;6.776;2022-09-13T11:56:20;27.30;1.00
19868;DHT22;10096;51.112;6.776;2022-09-13T11:58:50;27.50;99.90
19868;DHT22;10096;51.112;6.776;2022-09-13T12:01:22;27.40;99.90
19868;DHT22;10096;51.112;6.776;2022-09-13T12:03:56;27.50;99.90
19868;DHT22;10096;51.112;6.776;2022-09-13T12:06:29;27.50;99.90
19868;DHT22;10096;51.112;6.776;2022-09-13T12:09:01;27.50;99.90
19868;DHT22;10096;51.112;6.776;2022-09-13T12:11:32;27.00;99.90
19868;DHT22;10096;51.112;6.776;2022-09-13T12:14:03;27.00;99.90
19868;DHT22;10096;51.112;6.776;2022-09-13T12:16:35;27.10;1.00
19868;DHT22;10096;51.112;6.776;2022-09-13T12:19:10;27.30;1.00
19868;DHT22;10096;51.112;6.776;2022-09-13T12:21:41;27.20;99.90
19868;DHT22;10096;51.112;6.776;2022-09-13T12:24:16;27.20;99.90
19868;DHT22;10096;51.112;6.776;2022-09-13T12:26:47;27.10;99.90
19868;DHT22;10096;51.112;6.776;2022-09-13T12:29:19;27.10;99.90
19868;DHT22;10096;51.112;6.776;2022-09-13T12:31:48;27.30;1.00
19868;DHT22;10096;51.112;6.776;2022-09-13T12:34:19;27.10;99.90
19868;DHT22;10096;51.112;6.776;2022-09-13T12:37:00;27.10;99.90
19868;DHT22;10096;51.112;6.776;2022-09-13T12:39:55;27.10;99.90
19868;DHT22;10096;51.112;6.776;2022-09-13T12:42:47;27.20;99.90
19868;DHT22;10096;51.112;6.776;2022-09-13T12:45:35;27.30;99.90
19868;DHT22;10096;51.112;6.776;2022-09-13T12:48:21;27.30;99.90
19868;DHT22;10096;51.112;6.776;2022-09-13T12:52:29;27.10;99.90
19868;DHT22;10096;51.112;6.776;2022-09-13T12:54:19;27.00;99.90
19868;DHT22;10096;51.112;6.776;2022-09-13T12:57:12;27.10;1.00
19868;DHT22;10096;51.112;6.776;2022-09-13T13:03:00;27.20;1.00
19868;DHT22;10096;51.112;6.776;2022-09-13T13:05:37;27.20;1.00
19868;DHT22;10096;51.112;6.776;2022-09-13T13:10:59;27.30;99.90
19868;DHT22;10096;51.112;6.776;2022-09-13T13:13:34;27.30;1.00
19868;DHT22;10096;51.112;6.776;2022-09-13T13:16:06;27.50;1.00
19868;DHT22;10096;51.112;6.776;2022-09-13T13:19:26;27.40;1.00
19868;DHT22;10096;51.112;6.776;2022-09-13T13:21:54;27.50;1.00
19868;DHT22;10096;51.112;6.776;2022-09-13T13:24:44;27.30;1.00
19868;DHT22;10096;51.112;6.776;2022-09-13T13:27:40;27.60;99.90
19868;DHT22;10096;51.112;6.776;2022-09-13T13:30:51;27.50;99.90
19868;DHT22;10096;51.112;6.776;2022-09-13T13:33:22;27.30;1.00
19868;DHT22;10096;51.112;6.776;2022-09-13T13:35:50;27.10;99.90
19868;DHT22;10096;51.112;6.776;2022-09-13T13:38:41;27.00;1.00
19868;DHT22;10096;51.112;6.776;2022-09-13T13:41:42;26.90;99.90
19868;DHT22;10096;51.112;6.776;2022-09-13T13:47:51;26.80;1.00
19868;DHT22;10096;51.112;6.776;2022-09-13T13:50:29;26.70;99.90
19868;DHT22;10096;51.112;6.776;2022-09-13T13:52:58;26.60;1.00
19868;DHT22;10096;51.112;6.776;2022-09-13T13:55:42;26.80;99.90
19868;DHT22;10096;51.112;6.776;2022-09-13T13:58:42;27.00;1.00
19868;DHT22;10096;51.112;6.776;2022-09-13T14:01:16;27.20;99.90
19868;DHT22;10096;51.112;6.776;2022-09-13T14:04:03;27.30;99.90
19868;DHT22;10096;51.112;6.776;2022-09-13T14:06:35;27.50;99.90
19868;DHT22;10096;51.112;6.776;2022-09-13T14:09:13;27.40;99.90
19868;DHT22;10096;51.112;6.776;2022-09-13T14:11:53;27.70;99.90
19868;DHT22;10096;51.112;6.776;2022-09-13T14:17:39;27.90;1.00
19868;DHT22;10096;51.112;6.776;2022-09-13T14:20:14;27.80;99.90
19868;DHT22;10096;51.112;6.776;2022-09-13T14:22:46;28.10;99.90
19868;DHT22;10096;51.112;6.776;2022-09-13T14:25:22;27.80;99.90
19868;DHT22;10096;51.112;6.776;2022-09-13T14:27:53;27.80;99.90
19868;DHT22;10096;51.112;6.776;2022-09-13T14:30:28;27.90;99.90
19868;DHT22;10096;51.112;6.776;2022-09-13T14:32:58;27.90;99.90
19868;DHT22;10096;51.112;6.776;2022-09-13T14:35:30;27.90;1.00
19868;DHT22;10096;51.112;6.776;2022-09-13T14:38:09;27.80;1.00
19868;DHT22;10096;51.112;6.776;2022-09-13T14:40:36;27.90;99.90
19868;DHT22;10096;51.112;6.776;2022-09-13T14:43:13;28.00;1.00
19868;DHT22;10096;51.112;6.776;2022-09-13T14:45:44;28.30;1.00
19868;DHT22;10096;51.112;6.776;2022-09-13T14:48:17;28.20;99.90
19868;DHT22;10096;51.112;6.776;2022-09-13T14:50:54;27.90;99.90
19868;DHT22;10096;51.112;6.776;2022-09-13T14:53:24;28.00;99.90
19868;DHT22;10096;51.112;6.776;2022-09-13T14:55:56;28.30;1.00
19868;DHT22;10096;51.112;6.776;2022-09-13T14:58:28;28.30;1.00
19868;DHT22;10096;51.112;6.776;2022-09-13T15:01:00;28.50;99.90
19868;DHT22;10096;51.112;6.776;2022-09-13T15:03:28;28.30;99.90
19868;DHT22;10096;51.112;6.776;2022-09-13T15:06:37;28.50;99.90
19868;DHT22;10096;51.112;6.776;2022-09-13T15:09:28;28.20;99.90
19868;DHT22;10096;51.112;6.776;2022-09-13T15:12:02;28.30;1.00
19868;DHT22;10096;51.112;6.776;2022-09-13T15:14:44;28.00;1.00
19868;DHT22;10096;51.112;6.776;2022-09-13T15:17:19;28.00;99.90
19868;DHT22;10096;51.112;6.776;2022-09-13T15:19:48;27.90;1.00
19868;DHT22;10096;51.112;6.776;2022-09-13T15:22:21;27.90;1.00
19868;DHT22;10096;51.112;6.776;2022-09-13T15:24:51;27.80;1.00
19868;DHT22;10096;51.112;6.776;2022-09-13T15:27:29;27.50;99.90
19868;DHT22;10096;51.112;6.776;2022-09-13T15:30:04;27.70;99.90
19868;DHT22;10096;51.112;6.776;2022-09-13T15:32:34;27.60;1.00
19868;DHT22;10096;51.112;6.776;2022-09-13T15:35:31;27.40;1.00
19868;DHT22;10096;51.112;6.776;2022-09-13T15:38:16;27.30;99.90
19868;DHT22;10096;51.112;6.776;2022-09-13T15:40:44;27.40;99.90
19868;DHT22;10096;51.112;6.776;2022-09-13T15:43:13;26.90;99.90
19868;DHT22;10096;51.112;6.776;2022-09-13T15:45:40;27.30;99.90
19868;DHT22;10096;51.112;6.776;2022-09-13T15:48:16;27.20;99.90
19868;DHT22;10096;51.112;6.776;2022-09-13T15:51:04;26.90;99.90
19868;DHT22;10096;51.112;6.776;2022-09-13T15:53:36;26.90;99.90
19868;DHT22;10096;51.112;6.776;2022-09-13T15:56:05;26.90;99.90
19868;DHT22;10096;51.112;6.776;2022-09-13T15:58:35;27.00;99.90
19868;DHT22;10096;51.112;6.776;2022-09-13T16:01:03;26.80;99.90
19868;DHT22;10096;51.112;6.776;2022-09-13T16:03:31;26.70;99.90
19868;DHT22;10096;51.112;6.776;2022-09-13T16:05:59;26.80;1.00
19868;DHT22;10096;51.112;6.776;2022-09-13T16:08:26;26.80;99.90
19868;DHT22;10096;51.112;6.776;2022-09-13T16:10:55;26.70;1.00
19868;DHT22;10096;51.112;6.776;2022-09-13T16:13:23;26.70;1.00
19868;DHT22;10096;51.112;6.776;2022-09-13T16:15:50;26.60;99.90
19868;DHT22;10096;51.112;6.776;2022-09-13T16:18:17;26.50;99.90
19868;DHT22;10096;51.112;6.776;2022-09-13T16:20:44;26.50;99.90
19868;DHT22;10096;51.112;6.776;2022-09-13T16:23:24;26.60;99.90
19868;DHT22;10096;51.112;6.776;2022-09-13T16:25:56;26.20;99.90
19868;DHT22;10096;51.112;6.776;2022-09-13T16:28:28;26.20;1.00
19868;DHT22;10096;51.112;6.776;2022-09-13T16:31:07;26.10;99.90
19868;DHT22;10096;51.112;6.776;2022-09-13T16:33:39;26.30;99.90
19868;DHT22;10096;51.112;6.776;2022-09-13T16:36:10;26.10;99.90
19868;DHT22;10096;51.112;6.776;2022-09-13T16:38:39;26.10;99.90
19868;DHT22;10096;51.112;6.776;2022-09-13T16:41:12;26.00;99.90
19868;DHT22;10096;51.112;6.776;2022-09-13T16:43:39;25.90;1.00